createdAt,value
2023-01-01T00:03:55.422Z,59.6
2023-01-01T00:09:32.407Z,59.3
2023-01-01T00:15:10.269Z,59.6
2023-01-01T00:20:45.222Z,61.1
2023-01-01T00:26:21.249Z,61.8
2023-01-01T00:32:23.373Z,60.5
2023-01-01T00:38:31.716Z,59.7
2023-01-01T00:44:06.771Z,58.9
2023-01-01T00:49:47.684Z,59.1
2023-01-01T00:55:48.545Z,58.5
2023-01-01T01:01:24.507Z,57.9
2023-01-01T01:07:09.732Z,57.6
2023-01-01T01:12:44.800Z,57.4
2023-01-01T01:18:22.435Z,57.5
2023-01-01T01:23:58.223Z,58.5
2023-01-01T01:29:36.062Z,59.2
2023-01-01T01:35:15.022Z,58.7
2023-01-01T01:42:23.599Z,58.8
2023-01-01T01:48:20.626Z,57.5
2023-01-01T01:53:53.596Z,55.7
2023-01-01T01:59:33.109Z,55.8
2023-01-01T02:05:11.581Z,55.7
2023-01-01T02:10:56.243Z,55.7
2023-01-01T02:17:39.950Z,56.6
2023-01-01T02:23:36.685Z,56.8
2023-01-01T02:29:15.727Z,56.3
2023-01-01T02:34:53.265Z,56.1
2023-01-01T02:40:28.740Z,58
2023-01-01T02:46:30.731Z,58
2023-01-01T02:52:03.804Z,57
2023-01-01T02:57:39.277Z,56.4
2023-01-01T03:03:16.948Z,54.6
2023-01-01T03:08:53.042Z,53.8
2023-01-01T03:14:48.205Z,52.9
2023-01-01T03:20:23.184Z,52.6
2023-01-01T03:26:01.858Z,53
2023-01-01T03:31:43.345Z,55.2
2023-01-01T03:37:26.739Z,57.2
2023-01-01T03:43:05.940Z,54.6
2023-01-01T03:49:05.063Z,52.7
2023-01-01T03:54:38.066Z,51.6
2023-01-01T04:00:34.971Z,50.1
2023-01-01T04:06:11.773Z,52.8
2023-01-01T04:12:13.474Z,53.9
2023-01-01T04:17:48.271Z,55.2
2023-01-01T04:23:23.531Z,55.2
2023-01-01T04:28:58.400Z,56.4
2023-01-01T04:34:33.786Z,57.2
2023-01-01T04:40:09.448Z,58.1
2023-01-01T04:45:59.082Z,57.8
2023-01-01T04:51:34.541Z,58.4
2023-01-01T04:57:18.523Z,58.8
2023-01-01T05:02:54.047Z,59.1
2023-01-01T05:08:29.756Z,58.6
2023-01-01T05:14:06.193Z,58.1
2023-01-01T05:19:41.350Z,56.1
2023-01-01T05:25:25.449Z,56.9
2023-01-01T05:31:00.810Z,56.7
2023-01-01T05:36:57.549Z,56.8
2023-01-01T05:42:36.630Z,56
2023-01-01T05:48:38.037Z,55.8
2023-01-01T05:59:46.826Z,53.5
2023-01-01T06:05:22.538Z,53.3
2023-01-01T06:11:18.929Z,54
2023-01-01T06:17:12.844Z,53.8
2023-01-01T06:22:47.774Z,53.4
2023-01-01T06:28:31.831Z,54.2
2023-01-01T06:34:12.911Z,54.3
2023-01-01T06:39:57.460Z,54.3
2023-01-01T06:45:32.854Z,54.3
2023-01-01T06:51:14.248Z,54.4
2023-01-01T06:56:53.745Z,54.5
2023-01-01T07:02:29.031Z,54.5
2023-01-01T07:08:06.138Z,54.7
2023-01-01T07:13:43.129Z,54.6
2023-01-01T07:19:22.300Z,54.5
2023-01-01T07:25:01.265Z,54.5
2023-01-01T07:30:52.066Z,54.7
2023-01-01T07:36:42.846Z,55.2
2023-01-01T07:42:28.459Z,55.3
2023-01-01T07:48:47.292Z,55.4
2023-01-01T07:54:20.389Z,55.2
2023-01-01T08:00:07.234Z,55.6
2023-01-01T08:05:45.468Z,55.7
2023-01-01T08:11:21.521Z,57.2
2023-01-01T08:16:59.163Z,55
2023-01-01T08:22:40.766Z,57.5
2023-01-01T08:28:25.686Z,57
2023-01-01T08:34:05.424Z,61.3
2023-01-01T08:39:44.263Z,61.1
2023-01-01T08:45:19.849Z,59.6
2023-01-01T08:51:04.923Z,58.4
2023-01-01T08:56:44.300Z,59.3
2023-01-01T09:02:25.404Z,61.9
2023-01-01T09:08:02.664Z,58
2023-01-01T09:13:37.904Z,63.6
2023-01-01T09:19:14.456Z,60.9
2023-01-01T09:25:15.896Z,59.1
2023-01-01T09:30:50.982Z,58.1
2023-01-01T09:36:32.527Z,64.7
2023-01-01T09:42:12.597Z,55.8
2023-01-01T09:48:17.324Z,54.2
2023-01-01T09:53:50.153Z,59
2023-01-01T09:59:35.324Z,58.6
2023-01-01T10:05:40.927Z,55.7
2023-01-01T10:11:58.464Z,46.7
2023-01-01T10:18:36.012Z,50.1
2023-01-01T10:24:12.362Z,53.7
2023-01-01T10:29:47.340Z,55.1
2023-01-01T10:35:40.024Z,61.1
2023-01-01T10:41:20.445Z,51.5
2023-01-01T10:47:18.114Z,48.7
2023-01-01T10:52:52.080Z,61.3
2023-01-01T10:58:27.775Z,62.3
2023-01-01T11:04:12.490Z,61.1
2023-01-01T11:10:04.704Z,59.4
2023-01-01T11:16:01.180Z,60.8
2023-01-01T11:21:36.498Z,60.1
2023-01-01T11:27:14.760Z,57.6
2023-01-01T11:33:03.987Z,59.1
2023-01-01T11:38:43.838Z,62.6
2023-01-01T11:44:22.320Z,60
2023-01-01T11:49:57.651Z,61.2
2023-01-01T11:55:41.710Z,50.5
2023-01-01T12:01:17.732Z,52.3
2023-01-01T12:06:54.195Z,59.1
2023-01-01T12:12:30.332Z,52.3
2023-01-01T12:18:05.814Z,59.5
2023-01-01T12:23:41.459Z,58.7
2023-01-01T12:29:24.279Z,52.3
2023-01-01T12:35:04.261Z,57.3
2023-01-01T12:40:49.536Z,57.4
2023-01-01T12:46:50.144Z,57.8
2023-01-01T12:52:24.125Z,59.9
2023-01-01T12:58:02.319Z,55.3
2023-01-01T13:03:38.085Z,52.8
2023-01-01T13:09:14.380Z,47.9
2023-01-01T13:14:50.164Z,43.8
2023-01-01T13:20:29.945Z,42.6
2023-01-01T13:26:06.035Z,37.1
2023-01-01T13:31:42.299Z,45.6
2023-01-01T13:37:18.505Z,42.4
2023-01-01T13:43:04.412Z,45.9
2023-01-01T13:49:05.198Z,52.2
2023-01-01T13:54:38.861Z,52.4
2023-01-01T14:00:22.766Z,45.3
2023-01-01T14:06:08.440Z,45.4
2023-01-01T14:11:52.477Z,50.4
2023-01-01T14:17:49.939Z,48.9
2023-01-01T14:23:34.084Z,51.3
2023-01-01T14:29:13.362Z,43.2
2023-01-01T14:34:50.702Z,43.6
2023-01-01T14:40:25.835Z,40.4
2023-01-01T14:46:11.462Z,37.7
2023-01-01T14:51:47.545Z,36.5
2023-01-01T14:57:26.697Z,36.2
2023-01-01T15:03:05.294Z,36
2023-01-01T15:09:02.170Z,35.7
2023-01-01T15:14:51.846Z,38.8
2023-01-01T15:20:53.821Z,36.9
2023-01-01T15:26:33.543Z,36.7
2023-01-01T15:32:27.118Z,35.3
2023-01-01T15:38:15.843Z,36.8
2023-01-01T15:44:15.649Z,37.5
2023-01-01T15:50:16.738Z,38.6
2023-01-01T15:55:54.909Z,39.3
2023-01-01T16:01:39.507Z,40
2023-01-01T16:07:22.194Z,35.6
2023-01-01T16:13:15.298Z,37.5
2023-01-01T16:18:53.468Z,36.6
2023-01-01T16:24:30.716Z,36.2
2023-01-01T16:30:06.060Z,37.4
2023-01-01T16:35:58.416Z,37.4
2023-01-01T16:41:34.195Z,38.4
2023-01-01T16:47:39.171Z,40.6
2023-01-01T16:53:13.203Z,39.5
2023-01-01T16:59:03.792Z,39.5
2023-01-01T17:04:39.086Z,41
2023-01-01T17:10:23.351Z,41
2023-01-01T17:15:59.896Z,41.9
2023-01-01T17:21:37.154Z,42.5
2023-01-01T17:27:12.425Z,42.7
2023-01-01T17:32:47.427Z,42.7
2023-01-01T17:38:22.770Z,42.8
2023-01-01T17:43:57.830Z,42.9
2023-01-01T17:49:33.325Z,43
2023-01-01T17:55:08.659Z,44.7
2023-01-01T18:00:43.586Z,45.1
2023-01-01T18:06:22.163Z,44.4
2023-01-01T18:11:59.902Z,43.5
2023-01-01T18:17:35.285Z,43.4
2023-01-01T18:23:11.188Z,43.7
2023-01-01T18:28:46.609Z,43.7
2023-01-01T18:34:22.072Z,43.2
2023-01-01T18:39:57.551Z,43.1
2023-01-01T18:45:34.065Z,41.4
2023-01-01T18:51:09.574Z,40.6
2023-01-01T18:56:45.234Z,40.6
2023-01-01T19:02:20.882Z,38.5
2023-01-01T19:07:58.443Z,37.3
2023-01-01T19:13:34.158Z,36
2023-01-01T19:19:09.651Z,37.1
2023-01-01T19:24:51.607Z,36.1
2023-01-01T19:30:29.607Z,36
2023-01-01T19:36:12.347Z,34.5
2023-01-01T19:41:47.665Z,35.1
2023-01-01T19:47:23.739Z,34.6
2023-01-01T19:52:59.357Z,34.7
2023-01-01T19:58:35.787Z,34.2
2023-01-01T20:04:11.974Z,34.8
2023-01-01T20:09:49.155Z,34.8
2023-01-01T20:15:24.953Z,35
2023-01-01T20:21:00.902Z,34.8
2023-01-01T20:26:36.174Z,34.4
2023-01-01T20:32:12.951Z,35.2
2023-01-01T20:37:49.512Z,35.3
2023-01-01T20:43:29.862Z,35.5
2023-01-01T20:49:26.905Z,35.3
2023-01-01T20:55:00.644Z,35.7
2023-01-01T21:00:36.829Z,35.7
2023-01-01T21:06:15.048Z,35.2
2023-01-01T21:12:01.095Z,35.5
2023-01-01T21:17:38.582Z,35.9
2023-01-01T21:23:14.320Z,35.9
2023-01-01T21:28:49.547Z,35.9
2023-01-01T21:34:25.087Z,36.5
2023-01-01T21:40:00.698Z,36.7
2023-01-01T21:45:36.817Z,36.1
2023-01-01T21:51:13.689Z,35.5
2023-01-01T21:56:49.493Z,34.3
2023-01-01T22:02:27.597Z,34.6
2023-01-01T22:08:05.988Z,34.3
2023-01-01T22:13:41.536Z,34.2
2023-01-01T22:19:16.775Z,34.5
2023-01-01T22:24:53.538Z,35
2023-01-01T22:30:29.137Z,34.8
2023-01-01T22:36:05.318Z,33.4
2023-01-01T22:41:40.635Z,32.5
2023-01-01T22:47:37.622Z,32.6
2023-01-01T22:53:11.317Z,33
2023-01-01T22:58:56.968Z,33
2023-01-01T23:04:33.492Z,33.5
2023-01-01T23:10:10.249Z,33.6
2023-01-01T23:15:55.828Z,33
2023-01-01T23:21:33.288Z,33.5
2023-01-01T23:27:09.349Z,34.1
2023-01-01T23:32:44.639Z,34.2
2023-01-01T23:38:19.601Z,33.8
2023-01-01T23:43:55.169Z,34.1
2023-01-01T23:49:52.316Z,34.6
2023-01-01T23:55:25.221Z,34.8
